FDX1800 PHNL-KOAK
Flight info
| Callsign | FDX1800 |
|---|---|
| Flight time | N/A |
| Altitude | 35000 |
| Route | MKK5 KOLEA CLUTS R465 CINNY PIRAT3 |
| Aircraft | B77L/H-SDE1E2E3FGHIJ2J3J4J5M1RWXY/LB1D1 |
Departure
| Time | 2026-05-04 22:48 |
|---|---|
| Airport | Daniel K. Inouye International Airport (PHNL) |
Arrival
| Time | N/A |
|---|---|
| Airport | San Francisco Bay Oakland International Airport (KOAK) |
| Time | Latitude | Longitude | Altitude | Speed | Heading |
|---|---|---|---|---|---|
| 2026-05-04 22:26 | 21.31867 | -157.91588 | 29 ft | 0 kts | 143° |
| 2026-05-04 22:40 | 21.31872 | -157.91593 | 28 ft | 4 kts | 143° |
| 2026-05-04 22:40 | 21.31894 | -157.91610 | 28 ft | 4 kts | 143° |
| 2026-05-04 22:41 | 21.31916 | -157.91628 | 28 ft | 4 kts | 143° |
| 2026-05-04 22:41 | 21.31933 | -157.91641 | 28 ft | 4 kts | 146° |
| 2026-05-04 22:41 | 21.31956 | -157.91654 | 27 ft | 4 kts | 175° |
| 2026-05-04 22:41 | 21.31976 | -157.91648 | 28 ft | 4 kts | 214° |
| 2026-05-04 22:42 | 21.31996 | -157.91634 | 28 ft | 1 kts | 214° |
| 2026-05-04 22:42 | 21.31996 | -157.91633 | 28 ft | 0 kts | 214° |
| 2026-05-04 22:44 | 21.31992 | -157.91637 | 28 ft | 5 kts | 214° |
| 2026-05-04 22:44 | 21.31935 | -157.91680 | 29 ft | 11 kts | 216° |
| 2026-05-04 22:44 | 21.31878 | -157.91733 | 29 ft | 11 kts | 232° |
| 2026-05-04 22:44 | 21.31832 | -157.91798 | 29 ft | 11 kts | 235° |
| 2026-05-04 22:45 | 21.31758 | -157.91907 | 29 ft | 23 kts | 232° |
| 2026-05-04 22:45 | 21.31563 | -157.92180 | 29 ft | 23 kts | 233° |
| 2026-05-04 22:45 | 21.31467 | -157.92317 | 29 ft | 23 kts | 233° |
| 2026-05-04 22:46 | 21.31372 | -157.92452 | 29 ft | 23 kts | 234° |
| 2026-05-04 22:46 | 21.31305 | -157.92548 | 29 ft | 12 kts | 232° |
| 2026-05-04 22:46 | 21.31306 | -157.92626 | 29 ft | 12 kts | 310° |
| 2026-05-04 22:46 | 21.31370 | -157.92679 | 29 ft | 12 kts | 323° |
| 2026-05-04 22:47 | 21.31396 | -157.92692 | 29 ft | 3 kts | 2° |
| 2026-05-04 22:47 | 21.31432 | -157.92660 | 29 ft | 8 kts | 50° |
| 2026-05-04 22:47 | 21.31505 | -157.92559 | 29 ft | 48 kts | 52° |
| 2026-05-04 22:47 | 21.31915 | -157.91978 | 30 ft | 146 kts | 52° |
| 2026-05-04 22:48 | 21.32553 | -157.90935 | 714 ft | 165 kts | 59° |
| 2026-05-04 22:48 | 21.33082 | -157.89770 | 1594 ft | 182 kts | 62° |
| 2026-05-04 22:48 | 21.33794 | -157.88659 | 2094 ft | 183 kts | 55° |
| 2026-05-04 22:48 | 21.34215 | -157.87281 | 2195 ft | 214 kts | 89° |
| 2026-05-04 22:49 | 21.33938 | -157.85638 | 2457 ft | 235 kts | 103° |
| 2026-05-04 22:49 | 21.33490 | -157.83949 | 3174 ft | 234 kts | 104° |
| 2026-05-04 22:49 | 21.33432 | -157.82204 | 3667 ft | 238 kts | 78° |
| 2026-05-04 22:49 | 21.33863 | -157.80452 | 4196 ft | 248 kts | 75° |
| 2026-05-04 22:50 | 21.34307 | -157.78617 | 4661 ft | 261 kts | 77° |
| 2026-05-04 22:50 | 21.34735 | -157.76730 | 5310 ft | 267 kts | 77° |
| 2026-05-04 22:50 | 21.35169 | -157.74765 | 5951 ft | 274 kts | 77° |
| 2026-05-04 22:50 | 21.35603 | -157.72754 | 6641 ft | 279 kts | 78° |
| 2026-05-04 22:51 | 21.36036 | -157.70709 | 7319 ft | 283 kts | 78° |
| 2026-05-04 22:51 | 21.36468 | -157.68635 | 8007 ft | 287 kts | 78° |
| 2026-05-04 22:51 | 21.36901 | -157.66533 | 8709 ft | 290 kts | 78° |
| 2026-05-04 22:51 | 21.37338 | -157.64399 | 9352 ft | 296 kts | 78° |
| 2026-05-04 22:52 | 21.37774 | -157.62259 | 10039 ft | 299 kts | 77° |
| 2026-05-04 22:52 | 21.38222 | -157.60050 | 10484 ft | 312 kts | 78° |
| 2026-05-04 22:52 | 21.38700 | -157.57687 | 10632 ft | 335 kts | 78° |
| 2026-05-04 22:52 | 21.39210 | -157.55158 | 10804 ft | 359 kts | 78° |
| 2026-05-04 22:53 | 21.39754 | -157.52458 | 10954 ft | 381 kts | 78° |
| 2026-05-04 22:53 | 21.40320 | -157.49645 | 11492 ft | 390 kts | 78° |
| 2026-05-04 22:53 | 21.40896 | -157.46778 | 12146 ft | 397 kts | 78° |
| 2026-05-04 22:53 | 21.41481 | -157.43864 | 12960 ft | 400 kts | 78° |
| 2026-05-04 22:54 | 21.42067 | -157.40941 | 13849 ft | 402 kts | 79° |
| 2026-05-04 22:54 | 21.42651 | -157.38023 | 14453 ft | 408 kts | 78° |
| 2026-05-04 22:54 | 21.43252 | -157.35024 | 15039 ft | 415 kts | 78° |
| 2026-05-04 22:54 | 21.43859 | -157.31983 | 15732 ft | 417 kts | 78° |
| 2026-05-04 22:55 | 21.44466 | -157.28944 | 16542 ft | 417 kts | 78° |
| 2026-05-04 22:55 | 21.45079 | -157.25873 | 17146 ft | 423 kts | 78° |
| 2026-05-04 22:55 | 21.45487 | -157.23824 | 17574 ft | 426 kts | 78° |
| 2026-05-04 22:55 | 21.46320 | -157.19647 | 18448 ft | 430 kts | 78° |
| 2026-05-04 22:56 | 21.46734 | -157.17566 | 18820 ft | 433 kts | 78° |
| 2026-05-04 22:56 | 21.47367 | -157.14382 | 19304 ft | 438 kts | 78° |
| 2026-05-04 22:56 | 21.48002 | -157.11182 | 19951 ft | 439 kts | 78° |
| 2026-05-04 22:56 | 21.48849 | -157.06912 | 20710 ft | 443 kts | 78° |
| 2026-05-04 22:57 | 21.49494 | -157.03658 | 21220 ft | 448 kts | 77° |
| 2026-05-04 22:57 | 21.50144 | -157.00375 | 21828 ft | 450 kts | 77° |
| 2026-05-04 22:57 | 21.50576 | -156.98189 | 22134 ft | 454 kts | 77° |
| 2026-05-04 22:57 | 21.51234 | -156.94855 | 22608 ft | 459 kts | 77° |
| 2026-05-04 22:58 | 21.51900 | -156.91483 | 23075 ft | 464 kts | 77° |
| 2026-05-04 22:58 | 21.52572 | -156.88070 | 23510 ft | 469 kts | 77° |
| 2026-05-04 22:58 | 21.53472 | -156.83501 | 24083 ft | 474 kts | 77° |
| 2026-05-04 22:58 | 21.54152 | -156.80035 | 24518 ft | 477 kts | 77° |
| 2026-05-04 22:59 | 21.54841 | -156.76525 | 24827 ft | 483 kts | 77° |
| 2026-05-04 22:59 | 21.55311 | -156.74131 | 25037 ft | 487 kts | 77° |
| 2026-05-04 22:59 | 21.55999 | -156.70616 | 25461 ft | 489 kts | 77° |
| 2026-05-04 22:59 | 21.56700 | -156.67037 | 25927 ft | 491 kts | 77° |
| 2026-05-04 23:00 | 21.57405 | -156.63440 | 26323 ft | 494 kts | 77° |
| 2026-05-04 23:00 | 21.58350 | -156.59883 | 26701 ft | 497 kts | 68° |
| 2026-05-04 23:00 | 21.59778 | -156.56497 | 27074 ft | 499 kts | 60° |
| 2026-05-04 23:00 | 21.61582 | -156.53311 | 27467 ft | 500 kts | 52° |
| 2026-05-04 23:01 | 21.63742 | -156.50371 | 27852 ft | 502 kts | 49° |
| 2026-05-04 23:01 | 21.65973 | -156.47467 | 28205 ft | 506 kts | 49° |
| 2026-05-04 23:01 | 21.68192 | -156.44585 | 28549 ft | 510 kts | 49° |
| 2026-05-04 23:01 | 21.70455 | -156.41629 | 28865 ft | 514 kts | 49° |
| 2026-05-04 23:02 | 21.72723 | -156.38641 | 29221 ft | 517 kts | 49° |
| 2026-05-04 23:02 | 21.74992 | -156.35630 | 29584 ft | 519 kts | 49° |
| 2026-05-04 23:02 | 21.77266 | -156.32597 | 29932 ft | 522 kts | 49° |
| 2026-05-04 23:02 | 21.79543 | -156.29550 | 30326 ft | 523 kts | 49° |
| 2026-05-04 23:03 | 21.81817 | -156.26503 | 30742 ft | 522 kts | 49° |
| 2026-05-04 23:03 | 21.84084 | -156.23463 | 31195 ft | 520 kts | 49° |
| 2026-05-04 23:03 | 21.86317 | -156.20469 | 31599 ft | 520 kts | 49° |
| 2026-05-04 23:03 | 21.88580 | -156.17435 | 31977 ft | 520 kts | 49° |
| 2026-05-04 23:04 | 21.90844 | -156.14399 | 32342 ft | 520 kts | 49° |
| 2026-05-04 23:04 | 21.93107 | -156.11364 | 32716 ft | 520 kts | 49° |
| 2026-05-04 23:04 | 21.95372 | -156.08324 | 33084 ft | 520 kts | 49° |
| 2026-05-04 23:04 | 21.97632 | -156.05289 | 33460 ft | 519 kts | 49° |
| 2026-05-04 23:05 | 21.99891 | -156.02254 | 33838 ft | 519 kts | 49° |
| 2026-05-04 23:05 | 22.02148 | -155.99221 | 34192 ft | 518 kts | 49° |
| 2026-05-04 23:05 | 22.04400 | -155.96191 | 34489 ft | 518 kts | 49° |
| 2026-05-04 23:05 | 22.06652 | -155.93160 | 34773 ft | 518 kts | 49° |
| 2026-05-04 23:06 | 22.08873 | -155.90168 | 35041 ft | 518 kts | 49° |
| 2026-05-04 23:06 | 22.11135 | -155.87121 | 35097 ft | 523 kts | 49° |
| 2026-05-04 23:06 | 22.15674 | -155.81000 | 35129 ft | 521 kts | 49° |
| 2026-05-04 23:07 | 22.20169 | -155.74927 | 35147 ft | 516 kts | 49° |
| 2026-05-04 23:07 | 22.24651 | -155.68869 | 35147 ft | 516 kts | 49° |
| 2026-05-04 23:08 | 22.29099 | -155.62851 | 35148 ft | 516 kts | 49° |
| 2026-05-04 23:08 | 22.33576 | -155.56785 | 35161 ft | 517 kts | 49° |
| 2026-05-04 23:09 | 22.38054 | -155.50711 | 35149 ft | 517 kts | 49° |
| 2026-05-04 23:09 | 22.42536 | -155.44625 | 35162 ft | 518 kts | 48° |
| 2026-05-04 23:10 | 22.46996 | -155.38561 | 35154 ft | 519 kts | 48° |
| 2026-05-04 23:10 | 22.51489 | -155.32444 | 35160 ft | 520 kts | 48° |
| 2026-05-04 23:11 | 22.55985 | -155.26317 | 35155 ft | 520 kts | 49° |
| 2026-05-04 23:11 | 22.60483 | -155.20179 | 35157 ft | 520 kts | 49° |
| 2026-05-04 23:12 | 22.64948 | -155.14080 | 35154 ft | 521 kts | 49° |
| 2026-05-04 23:12 | 22.69446 | -155.07926 | 35161 ft | 521 kts | 48° |
| 2026-05-04 23:13 | 22.73939 | -155.01769 | 35158 ft | 521 kts | 48° |
| 2026-05-04 23:13 | 22.78433 | -154.95604 | 35154 ft | 521 kts | 48° |
| 2026-05-04 23:14 | 22.82895 | -154.89478 | 35158 ft | 521 kts | 48° |
| 2026-05-04 23:14 | 22.87383 | -154.83306 | 35156 ft | 521 kts | 48° |
| 2026-05-04 23:15 | 22.91867 | -154.77133 | 35174 ft | 521 kts | 48° |
| 2026-05-04 23:15 | 22.96354 | -154.70948 | 35164 ft | 521 kts | 48° |
| 2026-05-04 23:16 | 23.00777 | -154.64778 | 35160 ft | 523 kts | 51° |
| 2026-05-04 23:16 | 23.04837 | -154.58219 | 35167 ft | 523 kts | 53° |
| 2026-05-04 23:17 | 23.08820 | -154.51600 | 35162 ft | 524 kts | 53° |
| 2026-05-04 23:17 | 23.12820 | -154.44981 | 35161 ft | 524 kts | 53° |
| 2026-05-04 23:18 | 23.16836 | -154.38373 | 35159 ft | 524 kts | 53° |
| 2026-05-04 23:18 | 23.20826 | -154.31811 | 35158 ft | 524 kts | 53° |
| 2026-05-04 23:19 | 23.24838 | -154.25205 | 35165 ft | 524 kts | 53° |
| 2026-05-04 23:19 | 23.28848 | -154.18588 | 35167 ft | 524 kts | 53° |
| 2026-05-04 23:20 | 23.32859 | -154.11962 | 35166 ft | 524 kts | 53° |
| 2026-05-04 23:20 | 23.36866 | -154.05332 | 35180 ft | 525 kts | 53° |
| 2026-05-04 23:21 | 23.40846 | -153.98739 | 35166 ft | 525 kts | 53° |
| 2026-05-04 23:21 | 23.44855 | -153.92090 | 35167 ft | 525 kts | 53° |
| 2026-05-04 23:22 | 23.48858 | -153.85441 | 35166 ft | 525 kts | 53° |
| 2026-05-04 23:22 | 23.52862 | -153.78782 | 35166 ft | 525 kts | 53° |
| 2026-05-04 23:23 | 23.56835 | -153.72166 | 35169 ft | 525 kts | 53° |
| 2026-05-04 23:23 | 23.60836 | -153.65495 | 35177 ft | 526 kts | 53° |
| 2026-05-04 23:24 | 23.64836 | -153.58815 | 35178 ft | 526 kts | 53° |
| 2026-05-04 23:24 | 23.68837 | -153.52126 | 35168 ft | 527 kts | 53° |
| 2026-05-04 23:25 | 23.72836 | -153.45430 | 35168 ft | 527 kts | 53° |
| 2026-05-04 23:25 | 23.76805 | -153.38776 | 35167 ft | 527 kts | 53° |
| 2026-05-04 23:26 | 23.80805 | -153.32077 | 35187 ft | 527 kts | 53° |
| 2026-05-04 23:26 | 23.84817 | -153.25379 | 35177 ft | 527 kts | 53° |
| 2026-05-04 23:27 | 23.88828 | -153.18676 | 35177 ft | 527 kts | 53° |
| 2026-05-04 23:27 | 23.92807 | -153.12010 | 35163 ft | 527 kts | 53° |
| 2026-05-04 23:28 | 23.96807 | -153.05300 | 35180 ft | 527 kts | 53° |
| 2026-05-04 23:28 | 24.00805 | -152.98580 | 35181 ft | 527 kts | 53° |
| 2026-05-04 23:29 | 24.04799 | -152.91861 | 35172 ft | 527 kts | 53° |
| 2026-05-04 23:29 | 24.08758 | -152.85190 | 35175 ft | 526 kts | 53° |
| 2026-05-04 23:30 | 24.12737 | -152.78477 | 35170 ft | 525 kts | 53° |
| 2026-05-04 23:30 | 24.16710 | -152.71766 | 35179 ft | 525 kts | 53° |
| 2026-05-04 23:31 | 24.20677 | -152.65055 | 35179 ft | 525 kts | 53° |
| 2026-05-04 23:31 | 24.24617 | -152.58381 | 35187 ft | 525 kts | 54° |
| 2026-05-04 23:32 | 24.28578 | -152.51663 | 35181 ft | 525 kts | 54° |
| 2026-05-04 23:32 | 24.32534 | -152.44944 | 35175 ft | 524 kts | 54° |
| 2026-05-04 23:33 | 24.36483 | -152.38226 | 35178 ft | 524 kts | 54° |
| 2026-05-04 23:33 | 24.40427 | -152.31508 | 35184 ft | 524 kts | 54° |
| 2026-05-04 23:34 | 24.44342 | -152.24832 | 35196 ft | 524 kts | 54° |
| 2026-05-04 23:34 | 24.48278 | -152.18108 | 35180 ft | 524 kts | 54° |
| 2026-05-04 23:35 | 24.52211 | -152.11383 | 35184 ft | 523 kts | 54° |
| 2026-05-04 23:35 | 24.56140 | -152.04653 | 35183 ft | 523 kts | 54° |
| 2026-05-04 23:36 | 24.60065 | -151.97921 | 35185 ft | 523 kts | 54° |
| 2026-05-04 23:36 | 24.63961 | -151.91231 | 35178 ft | 523 kts | 54° |
| 2026-05-04 23:37 | 24.67881 | -151.84488 | 35184 ft | 523 kts | 54° |
| 2026-05-04 23:37 | 24.71793 | -151.77751 | 35184 ft | 523 kts | 54° |
| 2026-05-04 23:38 | 24.75700 | -151.71012 | 35187 ft | 522 kts | 54° |
| 2026-05-04 23:38 | 24.79574 | -151.64322 | 35187 ft | 522 kts | 54° |
| 2026-05-04 23:39 | 24.83468 | -151.57588 | 35188 ft | 521 kts | 54° |
| 2026-05-04 23:39 | 24.87361 | -151.50847 | 35194 ft | 521 kts | 54° |
| 2026-05-04 23:40 | 24.91246 | -151.44108 | 35186 ft | 521 kts | 54° |
| 2026-05-04 23:40 | 24.95099 | -151.37416 | 35187 ft | 520 kts | 54° |
| 2026-05-04 23:41 | 24.98973 | -151.30678 | 35182 ft | 520 kts | 54° |
| 2026-05-04 23:41 | 25.02841 | -151.23941 | 35193 ft | 520 kts | 54° |
| 2026-05-04 23:42 | 25.06707 | -151.17199 | 35204 ft | 520 kts | 55° |
| 2026-05-04 23:42 | 25.10546 | -151.10495 | 35189 ft | 520 kts | 55° |
| 2026-05-04 23:43 | 25.14404 | -151.03745 | 35186 ft | 520 kts | 55° |
| 2026-05-04 23:43 | 25.18259 | -150.96993 | 35189 ft | 519 kts | 55° |
| 2026-05-04 23:44 | 25.22107 | -150.90244 | 35188 ft | 519 kts | 55° |
| 2026-05-04 23:44 | 25.25925 | -150.83538 | 35187 ft | 519 kts | 55° |
| 2026-05-04 23:45 | 25.29766 | -150.76781 | 35188 ft | 519 kts | 55° |
| 2026-05-04 23:45 | 25.33605 | -150.70019 | 35183 ft | 519 kts | 55° |
| 2026-05-04 23:46 | 25.37441 | -150.63251 | 35192 ft | 520 kts | 55° |
| 2026-05-04 23:46 | 25.41253 | -150.56517 | 35191 ft | 520 kts | 55° |
| 2026-05-04 23:47 | 25.45089 | -150.49730 | 35212 ft | 520 kts | 55° |
| 2026-05-04 23:47 | 25.48924 | -150.42935 | 35190 ft | 521 kts | 55° |
| 2026-05-04 23:48 | 25.52755 | -150.36136 | 35192 ft | 520 kts | 55° |
| 2026-05-04 23:48 | 25.56552 | -150.29390 | 35193 ft | 519 kts | 55° |
| 2026-05-04 23:49 | 25.60368 | -150.22598 | 35195 ft | 519 kts | 55° |
| 2026-05-04 23:49 | 25.64179 | -150.15807 | 35207 ft | 519 kts | 56° |
| 2026-05-04 23:50 | 25.67985 | -150.09013 | 35200 ft | 518 kts | 56° |
| 2026-05-04 23:50 | 25.71757 | -150.02272 | 35194 ft | 518 kts | 56° |
| 2026-05-04 23:51 | 25.75549 | -149.95484 | 35195 ft | 517 kts | 56° |
| 2026-05-04 23:51 | 25.79335 | -149.88697 | 35195 ft | 517 kts | 56° |
| 2026-05-04 23:52 | 25.83115 | -149.81912 | 35203 ft | 517 kts | 56° |
| 2026-05-04 23:52 | 25.86893 | -149.75118 | 35197 ft | 517 kts | 56° |
| 2026-05-04 23:53 | 25.90641 | -149.68370 | 35195 ft | 517 kts | 56° |
| 2026-05-04 23:53 | 25.94410 | -149.61574 | 35195 ft | 517 kts | 56° |
| 2026-05-04 23:54 | 25.98177 | -149.54770 | 35197 ft | 517 kts | 56° |
| 2026-05-04 23:54 | 26.01940 | -149.47966 | 35198 ft | 517 kts | 56° |
| 2026-05-04 23:55 | 26.05675 | -149.41200 | 35198 ft | 517 kts | 56° |
| 2026-05-04 23:56 | 26.11304 | -149.30987 | 35197 ft | 516 kts | 56° |
| 2026-05-04 23:56 | 26.15051 | -149.24174 | 35198 ft | 516 kts | 56° |
| 2026-05-04 23:57 | 26.18792 | -149.17363 | 35198 ft | 516 kts | 56° |
| 2026-05-04 23:57 | 26.22503 | -149.10596 | 35210 ft | 515 kts | 56° |
| 2026-05-04 23:58 | 26.26236 | -149.03778 | 35198 ft | 515 kts | 56° |
| 2026-05-04 23:58 | 26.29959 | -148.96970 | 35196 ft | 514 kts | 56° |
| 2026-05-04 23:59 | 26.33675 | -148.90162 | 35198 ft | 514 kts | 56° |
| 2026-05-04 23:59 | 26.37386 | -148.83355 | 35198 ft | 513 kts | 56° |
| 2026-05-05 00:00 | 26.41065 | -148.76596 | 35205 ft | 513 kts | 56° |
| 2026-05-05 00:00 | 26.44765 | -148.69788 | 35208 ft | 513 kts | 56° |
| 2026-05-05 00:01 | 26.48459 | -148.62980 | 35197 ft | 513 kts | 57° |
| 2026-05-05 00:01 | 26.52150 | -148.56169 | 35199 ft | 512 kts | 57° |
| 2026-05-05 00:02 | 26.55834 | -148.49360 | 35209 ft | 512 kts | 57° |
| 2026-05-05 00:02 | 26.59492 | -148.42588 | 35212 ft | 512 kts | 57° |
| 2026-05-05 00:03 | 26.63169 | -148.35770 | 35203 ft | 512 kts | 57° |
| 2026-05-05 00:03 | 26.66843 | -148.28949 | 35205 ft | 512 kts | 57° |
| 2026-05-05 00:04 | 26.70512 | -148.22125 | 35206 ft | 512 kts | 57° |
| 2026-05-05 00:04 | 26.74155 | -148.15340 | 35204 ft | 512 kts | 57° |
| 2026-05-05 00:05 | 26.77816 | -148.08510 | 35205 ft | 512 kts | 57° |
| 2026-05-05 00:05 | 26.81475 | -148.01674 | 35212 ft | 512 kts | 57° |
| 2026-05-05 00:06 | 26.85131 | -147.94833 | 35212 ft | 512 kts | 57° |
| 2026-05-05 00:06 | 26.88759 | -147.88034 | 35211 ft | 512 kts | 57° |
| 2026-05-05 00:07 | 26.92405 | -147.81191 | 35220 ft | 512 kts | 57° |
| 2026-05-05 00:07 | 26.96050 | -147.74338 | 35219 ft | 512 kts | 57° |
| 2026-05-05 00:08 | 26.99692 | -147.67481 | 35208 ft | 512 kts | 57° |
| 2026-05-05 00:08 | 27.03328 | -147.60623 | 35208 ft | 512 kts | 57° |
| 2026-05-05 00:09 | 27.06935 | -147.53811 | 35208 ft | 511 kts | 57° |
| 2026-05-05 00:09 | 27.10564 | -147.46946 | 35209 ft | 511 kts | 57° |
| 2026-05-05 00:10 | 27.14189 | -147.40078 | 35211 ft | 511 kts | 57° |
| 2026-05-05 00:10 | 27.17810 | -147.33206 | 35212 ft | 511 kts | 57° |
| 2026-05-05 00:11 | 27.21403 | -147.26375 | 35217 ft | 511 kts | 57° |
| 2026-05-05 00:11 | 27.25017 | -147.19496 | 35212 ft | 511 kts | 57° |
| 2026-05-05 00:12 | 27.28632 | -147.12609 | 35224 ft | 512 kts | 57° |
| 2026-05-05 00:12 | 27.32242 | -147.05717 | 35215 ft | 512 kts | 57° |
| 2026-05-05 00:13 | 27.35826 | -146.98863 | 35215 ft | 511 kts | 57° |
| 2026-05-05 00:13 | 27.39429 | -146.91960 | 35216 ft | 511 kts | 57° |
| 2026-05-05 00:14 | 27.43026 | -146.85059 | 35220 ft | 511 kts | 57° |
| 2026-05-05 00:14 | 27.46622 | -146.78148 | 35223 ft | 511 kts | 57° |
| 2026-05-05 00:15 | 27.50215 | -146.71233 | 35219 ft | 511 kts | 57° |
| 2026-05-05 00:15 | 27.53779 | -146.64362 | 35223 ft | 511 kts | 57° |
| 2026-05-05 00:16 | 27.57364 | -146.57439 | 35223 ft | 511 kts | 57° |
| 2026-05-05 00:16 | 27.60945 | -146.50514 | 35235 ft | 511 kts | 57° |
| 2026-05-05 00:17 | 27.64525 | -146.43577 | 35221 ft | 512 kts | 57° |
| 2026-05-05 00:17 | 27.68077 | -146.36685 | 35225 ft | 512 kts | 57° |
| 2026-05-05 00:18 | 27.71648 | -146.29745 | 35224 ft | 512 kts | 57° |
| 2026-05-05 00:18 | 27.75218 | -146.22796 | 35226 ft | 511 kts | 57° |
| 2026-05-05 00:19 | 27.78783 | -146.15845 | 35230 ft | 512 kts | 57° |
| 2026-05-05 00:19 | 27.82344 | -146.08889 | 35228 ft | 512 kts | 57° |
| 2026-05-05 00:20 | 27.85903 | -146.01927 | 35227 ft | 511 kts | 57° |
| 2026-05-05 00:20 | 27.89433 | -145.95011 | 35232 ft | 511 kts | 57° |
| 2026-05-05 00:21 | 27.92982 | -145.88046 | 35247 ft | 511 kts | 57° |
| 2026-05-05 00:21 | 27.96527 | -145.81076 | 35235 ft | 511 kts | 57° |
| 2026-05-05 00:22 | 28.00070 | -145.74099 | 35232 ft | 511 kts | 57° |
| 2026-05-05 00:22 | 28.03583 | -145.67171 | 35234 ft | 511 kts | 57° |
| 2026-05-05 00:23 | 28.07119 | -145.60185 | 35237 ft | 511 kts | 58° |
| 2026-05-05 00:23 | 28.10649 | -145.53201 | 35242 ft | 511 kts | 58° |
| 2026-05-05 00:24 | 28.14175 | -145.46212 | 35239 ft | 511 kts | 58° |
| 2026-05-05 00:24 | 28.17675 | -145.39263 | 35240 ft | 511 kts | 58° |
| 2026-05-05 00:25 | 28.21194 | -145.32263 | 35240 ft | 511 kts | 58° |
| 2026-05-05 00:25 | 28.24709 | -145.25262 | 35245 ft | 511 kts | 58° |
| 2026-05-05 00:26 | 28.28223 | -145.18249 | 35248 ft | 511 kts | 58° |
| 2026-05-05 00:26 | 28.31711 | -145.11278 | 35246 ft | 511 kts | 58° |
| 2026-05-05 00:27 | 28.35218 | -145.04256 | 35243 ft | 511 kts | 58° |
| 2026-05-05 00:27 | 28.38724 | -144.97225 | 35240 ft | 512 kts | 58° |
| 2026-05-05 00:28 | 28.42226 | -144.90190 | 35240 ft | 512 kts | 58° |
| 2026-05-05 00:28 | 28.45725 | -144.83148 | 35243 ft | 512 kts | 58° |
| 2026-05-05 00:29 | 28.49197 | -144.76151 | 35247 ft | 512 kts | 58° |
| 2026-05-05 00:29 | 28.52688 | -144.69102 | 35255 ft | 512 kts | 58° |
| 2026-05-05 00:30 | 28.56175 | -144.62049 | 35255 ft | 512 kts | 58° |
| 2026-05-05 00:30 | 28.59659 | -144.54990 | 35248 ft | 512 kts | 58° |
| 2026-05-05 00:31 | 28.63116 | -144.47973 | 35247 ft | 511 kts | 58° |
| 2026-05-05 00:31 | 28.66592 | -144.40908 | 35250 ft | 511 kts | 58° |
| 2026-05-05 00:32 | 28.70063 | -144.33839 | 35253 ft | 511 kts | 58° |
| 2026-05-05 00:32 | 28.73531 | -144.26765 | 35254 ft | 511 kts | 58° |
| 2026-05-05 00:33 | 28.76972 | -144.19732 | 35246 ft | 512 kts | 58° |
| 2026-05-05 00:33 | 28.80435 | -144.12645 | 35253 ft | 512 kts | 58° |
| 2026-05-05 00:34 | 28.83896 | -144.05547 | 35265 ft | 512 kts | 58° |
| 2026-05-05 00:34 | 28.87351 | -143.98449 | 35252 ft | 513 kts | 58° |
| 2026-05-05 00:35 | 28.90791 | -143.91371 | 35256 ft | 513 kts | 58° |
| 2026-05-05 00:35 | 28.94247 | -143.84248 | 35253 ft | 513 kts | 58° |
| 2026-05-05 00:36 | 28.97699 | -143.77118 | 35258 ft | 513 kts | 58° |
| 2026-05-05 00:36 | 29.01148 | -143.69984 | 35257 ft | 513 kts | 58° |
| 2026-05-05 00:37 | 29.04572 | -143.62889 | 35254 ft | 513 kts | 58° |
| 2026-05-05 00:37 | 29.08013 | -143.55745 | 35254 ft | 513 kts | 58° |
| 2026-05-05 00:38 | 29.11449 | -143.48601 | 35256 ft | 513 kts | 58° |
| 2026-05-05 00:38 | 29.14880 | -143.41453 | 35265 ft | 513 kts | 58° |
| 2026-05-05 00:39 | 29.18282 | -143.34352 | 35258 ft | 512 kts | 58° |
| 2026-05-05 00:39 | 29.21705 | -143.27198 | 35258 ft | 512 kts | 58° |
| 2026-05-05 00:40 | 29.25120 | -143.20045 | 35255 ft | 512 kts | 58° |
| 2026-05-05 00:40 | 29.28531 | -143.12889 | 35266 ft | 512 kts | 58° |
| 2026-05-05 00:41 | 29.31918 | -143.05769 | 35261 ft | 512 kts | 59° |
| 2026-05-05 00:41 | 29.35322 | -142.98601 | 35260 ft | 512 kts | 59° |
| 2026-05-05 00:42 | 29.38727 | -142.91420 | 35259 ft | 513 kts | 59° |
| 2026-05-05 00:42 | 29.42128 | -142.84232 | 35263 ft | 513 kts | 59° |
| 2026-05-05 00:43 | 29.45503 | -142.77089 | 35260 ft | 513 kts | 59° |
| 2026-05-05 00:43 | 29.48900 | -142.69884 | 35260 ft | 513 kts | 59° |
| 2026-05-05 00:44 | 29.52291 | -142.62679 | 35263 ft | 513 kts | 59° |
| 2026-05-05 00:44 | 29.55680 | -142.55465 | 35272 ft | 513 kts | 59° |
| 2026-05-05 00:45 | 29.59046 | -142.48289 | 35257 ft | 514 kts | 59° |
| 2026-05-05 00:45 | 29.62427 | -142.41065 | 35262 ft | 513 kts | 59° |
| 2026-05-05 00:46 | 29.65806 | -142.33834 | 35263 ft | 513 kts | 59° |
| 2026-05-05 00:46 | 29.69183 | -142.26594 | 35268 ft | 513 kts | 59° |
| 2026-05-05 00:47 | 29.72553 | -142.19355 | 35260 ft | 513 kts | 59° |
| 2026-05-05 00:47 | 29.75897 | -142.12158 | 35262 ft | 513 kts | 59° |
| 2026-05-05 00:48 | 29.79258 | -142.04911 | 35263 ft | 513 kts | 59° |
| 2026-05-05 00:48 | 29.82618 | -141.97654 | 35270 ft | 514 kts | 59° |
| 2026-05-05 00:49 | 29.85975 | -141.90389 | 35261 ft | 514 kts | 59° |
| 2026-05-05 00:49 | 29.89305 | -141.83171 | 35261 ft | 514 kts | 59° |
| 2026-05-05 00:50 | 29.92655 | -141.75895 | 35266 ft | 514 kts | 59° |
| 2026-05-05 00:50 | 29.96000 | -141.68615 | 35272 ft | 514 kts | 59° |
| 2026-05-05 00:51 | 29.99342 | -141.61329 | 35263 ft | 514 kts | 59° |
| 2026-05-05 00:51 | 30.02657 | -141.54089 | 35258 ft | 514 kts | 59° |
| 2026-05-05 00:52 | 30.05992 | -141.46790 | 35268 ft | 514 kts | 59° |
| 2026-05-05 00:52 | 30.09325 | -141.39484 | 35267 ft | 514 kts | 59° |
| 2026-05-05 00:53 | 30.12653 | -141.32173 | 35262 ft | 515 kts | 59° |
| 2026-05-05 00:53 | 30.15959 | -141.24897 | 35268 ft | 515 kts | 59° |
| 2026-05-05 00:54 | 30.19285 | -141.17563 | 35280 ft | 515 kts | 59° |
| 2026-05-05 00:54 | 30.22611 | -141.10215 | 35268 ft | 516 kts | 59° |
| 2026-05-05 00:55 | 30.25933 | -141.02863 | 35263 ft | 516 kts | 59° |
| 2026-05-05 00:55 | 30.29226 | -140.95559 | 35266 ft | 515 kts | 59° |
| 2026-05-05 00:56 | 30.32536 | -140.88205 | 35275 ft | 515 kts | 59° |
| 2026-05-05 00:56 | 30.35841 | -140.80847 | 35262 ft | 515 kts | 59° |
| 2026-05-05 00:57 | 30.39138 | -140.73494 | 35270 ft | 515 kts | 59° |
| 2026-05-05 00:57 | 30.42410 | -140.66181 | 35272 ft | 514 kts | 59° |
| 2026-05-05 00:58 | 30.45696 | -140.58814 | 35277 ft | 515 kts | 59° |
| 2026-05-05 00:58 | 30.48980 | -140.51437 | 35272 ft | 515 kts | 59° |
| 2026-05-05 00:59 | 30.52258 | -140.44056 | 35274 ft | 515 kts | 59° |
| 2026-05-05 00:59 | 30.55515 | -140.36711 | 35272 ft | 515 kts | 60° |
| 2026-05-05 01:00 | 30.58789 | -140.29312 | 35278 ft | 516 kts | 59° |
| 2026-05-05 01:00 | 30.62064 | -140.21898 | 35273 ft | 516 kts | 60° |
| 2026-05-05 01:01 | 30.65335 | -140.14477 | 35277 ft | 516 kts | 60° |
| 2026-05-05 01:01 | 30.68604 | -140.07046 | 35283 ft | 517 kts | 60° |
| 2026-05-05 01:02 | 30.71848 | -139.99656 | 35279 ft | 517 kts | 60° |
| 2026-05-05 01:02 | 30.75111 | -139.92210 | 35270 ft | 517 kts | 60° |
| 2026-05-05 01:03 | 30.78368 | -139.84763 | 35275 ft | 517 kts | 60° |
| 2026-05-05 01:03 | 30.81621 | -139.77308 | 35283 ft | 517 kts | 60° |
| 2026-05-05 01:04 | 30.84848 | -139.69901 | 35265 ft | 517 kts | 60° |
| 2026-05-05 01:04 | 30.89712 | -139.58707 | 35277 ft | 516 kts | 60° |
| 2026-05-05 01:05 | 30.92948 | -139.51241 | 35271 ft | 516 kts | 60° |
| 2026-05-05 01:05 | 30.96158 | -139.43819 | 35265 ft | 516 kts | 60° |
| 2026-05-05 01:06 | 30.99388 | -139.36338 | 35270 ft | 517 kts | 60° |
| 2026-05-05 01:06 | 31.02613 | -139.28852 | 35277 ft | 517 kts | 60° |
| 2026-05-05 01:07 | 31.05833 | -139.21362 | 35269 ft | 517 kts | 60° |
| 2026-05-05 01:07 | 31.09053 | -139.13858 | 35266 ft | 517 kts | 60° |
| 2026-05-05 01:08 | 31.12247 | -139.06400 | 35269 ft | 518 kts | 60° |
| 2026-05-05 01:08 | 31.15463 | -138.98875 | 35272 ft | 518 kts | 60° |
| 2026-05-05 01:09 | 31.18674 | -138.91345 | 35267 ft | 518 kts | 60° |
| 2026-05-05 01:09 | 31.21883 | -138.83804 | 35266 ft | 518 kts | 60° |
| 2026-05-05 01:10 | 31.25068 | -138.76306 | 35266 ft | 518 kts | 60° |
| 2026-05-05 01:10 | 31.28267 | -138.68758 | 35266 ft | 518 kts | 60° |
| 2026-05-05 01:11 | 31.31465 | -138.61200 | 35265 ft | 518 kts | 60° |
| 2026-05-05 01:11 | 31.34655 | -138.53642 | 35264 ft | 518 kts | 60° |
| 2026-05-05 01:12 | 31.37822 | -138.46125 | 35268 ft | 519 kts | 60° |
| 2026-05-05 01:12 | 31.41006 | -138.38550 | 35259 ft | 519 kts | 61° |
| 2026-05-05 01:13 | 31.44186 | -138.30969 | 35264 ft | 518 kts | 61° |
| 2026-05-05 01:13 | 31.47360 | -138.23389 | 35274 ft | 519 kts | 61° |
| 2026-05-05 01:14 | 31.50507 | -138.15855 | 35260 ft | 519 kts | 61° |
| 2026-05-05 01:14 | 31.53674 | -138.08258 | 35259 ft | 518 kts | 61° |
| 2026-05-05 01:15 | 31.56833 | -138.00665 | 35273 ft | 518 kts | 61° |
| 2026-05-05 01:15 | 31.59989 | -137.93063 | 35260 ft | 518 kts | 61° |
| 2026-05-05 01:16 | 31.63120 | -137.85507 | 35252 ft | 518 kts | 61° |
| 2026-05-05 01:16 | 31.66262 | -137.77906 | 35254 ft | 518 kts | 61° |
| 2026-05-05 01:17 | 31.69401 | -137.70296 | 35257 ft | 518 kts | 61° |
| 2026-05-05 01:17 | 31.72535 | -137.62683 | 35251 ft | 517 kts | 61° |
| 2026-05-05 01:18 | 31.75641 | -137.55123 | 35250 ft | 517 kts | 61° |
| 2026-05-05 01:18 | 31.78763 | -137.47508 | 35258 ft | 517 kts | 61° |
| 2026-05-05 01:19 | 31.81880 | -137.39888 | 35251 ft | 517 kts | 61° |
| 2026-05-05 01:19 | 31.84991 | -137.32266 | 35250 ft | 517 kts | 61° |
| 2026-05-05 01:20 | 31.88097 | -137.24640 | 35256 ft | 517 kts | 61° |
| 2026-05-05 01:20 | 31.91179 | -137.17060 | 35254 ft | 517 kts | 61° |
| 2026-05-05 01:21 | 31.94278 | -137.09416 | 35248 ft | 517 kts | 61° |